Time;durP1;ratioP1;P1;durP2;ratioP2;P2;SDS_P1;SDS_P2;PMS_P1;PMS_P2;Temp;Humidity;BMP_temperature;BMP_pressure;BME280_temperature;BME280_humidity;BME280_pressure;Samples;Min_cycle;Max_cycle;Signal;HPM_P1;HPM_P2
2021/10/18 00:02:20;;;;;;;4.72;3.10;;;10.80;99.90;;;;;;5090606;28;20028;-49
2021/10/18 00:04:45;;;;;;;5.20;3.20;;;10.80;99.90;;;;;;5090491;28;20028;-47
2021/10/18 00:07:11;;;;;;;6.15;3.53;;;10.80;99.90;;;;;;5089703;28;20405;-45
2021/10/18 00:09:36;;;;;;;7.53;3.30;;;10.80;99.90;;;;;;5090202;28;20016;-48
2021/10/18 00:12:03;;;;;;;7.35;3.08;;;10.80;99.90;;;;;;5089922;28;20465;-45
2021/10/18 00:14:28;;;;;;;5.72;3.42;;;10.80;99.90;;;;;;5090284;28;20104;-46
2021/10/18 00:16:54;;;;;;;10.73;3.33;;;10.80;99.90;;;;;;5090129;28;20553;-49
2021/10/18 00:19:19;;;;;;;8.48;3.45;;;10.80;99.90;;;;;;5088346;28;20031;-46
2021/10/18 00:21:45;;;;;;;6.72;3.33;;;10.80;99.90;;;;;;5090067;28;20109;-49
2021/10/18 00:24:10;;;;;;;6.43;3.72;;;10.80;99.90;;;;;;5088989;28;20102;-46
2021/10/18 00:26:36;;;;;;;7.15;2.95;;;10.90;99.90;;;;;;5070937;28;20465;-46
2021/10/18 00:29:02;;;;;;;8.68;3.88;;;10.80;99.90;;;;;;5081708;28;20451;-45
2021/10/18 00:31:28;;;;;;;5.65;3.03;;;10.80;99.90;;;;;;5088516;28;20024;-46
2021/10/18 00:33:53;;;;;;;5.78;3.45;;;10.80;99.90;;;;;;5089902;28;20047;-46
2021/10/18 00:36:19;;;;;;;10.88;3.63;;;10.80;99.90;;;;;;5089985;28;20081;-46
2021/10/18 00:38:45;;;;;;;10.52;4.07;;;10.80;99.90;;;;;;5087958;28;20489;-46
2021/10/18 00:41:11;;;;;;;8.13;3.70;;;10.80;99.90;;;;;;5089462;28;20490;-46
2021/10/18 00:43:38;;;;;;;6.82;3.20;;;10.80;99.90;;;;;;5090046;28;20153;-46
2021/10/18 00:46:04;;;;;;;9.40;3.63;;;10.80;99.90;;;;;;5089505;28;20023;-47
2021/10/18 00:48:29;;;;;;;7.22;3.28;;;10.80;99.90;;;;;;5088839;28;20024;-46
2021/10/18 00:50:56;;;;;;;6.38;3.45;;;10.80;99.90;;;;;;5089361;28;20385;-45
2021/10/18 00:53:26;;;;;;;6.20;3.10;;;10.80;99.90;;;;;;5089882;28;20034;-45
2021/10/18 00:55:53;;;;;;;7.03;3.65;;;10.80;99.90;;;;;;5073377;28;20586;-45
2021/10/18 00:58:19;;;;;;;6.95;3.42;;;10.80;99.90;;;;;;5080101;28;20059;-49
2021/10/18 01:00:45;;;;;;;16.52;4.10;;;10.90;99.90;;;;;;5088707;28;20338;-46
2021/10/18 01:03:11;;;;;;;9.38;4.00;;;10.90;99.90;;;;;;5089209;28;20028;-45
2021/10/18 01:05:40;;;;;;;9.85;4.38;;;10.80;99.90;;;;;;5089183;28;20035;-45
2021/10/18 01:08:08;;;;;;;5.43;3.30;;;10.90;99.90;;;;;;5088474;28;20026;-46
2021/10/18 01:10:33;;;;;;;9.10;4.07;;;10.80;99.90;;;;;;5088847;28;20028;-45
2021/10/18 01:12:59;;;;;;;6.68;3.75;;;10.90;99.90;;;;;;5087678;28;20104;-45
2021/10/18 01:15:24;;;;;;;8.10;3.58;;;10.90;99.90;;;;;;5089298;28;20028;-45
2021/10/18 01:17:50;;;;;;;7.85;4.03;;;10.90;99.90;;;;;;5088725;28;20034;-45
2021/10/18 01:20:30;;;;;;;9.27;3.70;;;10.90;99.90;;;;;;5089227;28;20050;-45
2021/10/18 01:22:55;;;;;;;6.73;3.47;;;10.90;99.90;;;;;;5089005;28;20509;-48
2021/10/18 01:25:21;;;;;;;6.60;3.17;;;10.90;99.90;;;;;;5075758;28;20064;-45
2021/10/18 01:27:46;;;;;;;8.60;3.90;;;10.90;99.90;;;;;;5076822;28;20024;-45
2021/10/18 01:30:12;;;;;;;9.40;4.10;;;10.80;99.90;;;;;;5088744;28;20032;-46
2021/10/18 01:32:37;;;;;;;7.75;3.78;;;10.80;99.90;;;;;;5088866;28;20028;-45
2021/10/18 01:35:07;;;;;;;11.70;3.33;;;10.80;99.90;;;;;;5088786;28;20049;-46
2021/10/18 01:37:33;;;;;;;7.80;4.15;;;10.80;99.90;;;;;;5087000;28;20020;-48
2021/10/18 01:39:58;;;;;;;6.03;3.05;;;10.80;99.90;;;;;;5088621;28;20047;-46
2021/10/18 01:42:24;;;;;;;4.68;3.42;;;10.80;99.90;;;;;;5088331;28;20035;-46
2021/10/18 01:44:49;;;;;;;5.70;3.70;;;10.80;99.90;;;;;;5088706;28;20096;-45
2021/10/18 01:47:15;;;;;;;9.80;3.58;;;10.80;99.90;;;;;;5086668;28;20031;-46
2021/10/18 01:49:40;;;;;;;7.20;3.58;;;10.80;99.90;;;;;;5087212;28;20027;-47
2021/10/18 01:52:06;;;;;;;11.77;4.30;;;10.80;99.90;;;;;;5088548;28;20132;-49
2021/10/18 01:54:32;;;;;;;6.47;3.78;;;10.80;99.90;;;;;;5088581;28;20017;-48
2021/10/18 01:56:57;;;;;;;10.52;3.70;;;10.80;99.90;;;;;;5069409;28;20025;-45
2021/10/18 01:59:23;;;;;;;12.10;3.92;;;10.80;99.90;;;;;;5083356;28;20032;-45
2021/10/18 02:01:48;;;;;;;10.32;4.18;;;10.70;99.90;;;;;;5088735;28;20020;-45
2021/10/18 02:04:14;;;;;;;6.47;3.30;;;10.70;99.90;;;;;;5086956;28;20024;-46
2021/10/18 02:06:39;;;;;;;9.18;3.90;;;10.80;99.90;;;;;;5088228;28;20701;-47
2021/10/18 02:09:04;;;;;;;6.85;3.13;;;10.70;99.90;;;;;;5087910;28;20144;-46
2021/10/18 02:11:30;;;;;;;8.65;3.63;;;10.70;99.90;;;;;;5088213;28;20035;-45
2021/10/18 02:13:55;;;;;;;9.45;4.05;;;10.70;99.90;;;;;;5092388;28;20036;-47
2021/10/18 02:16:22;;;;;;;8.27;3.60;;;10.70;99.90;;;;;;5092694;28;20114;-45
2021/10/18 02:18:48;;;;;;;7.90;3.53;;;10.70;99.90;;;;;;5091909;28;20024;-46
2021/10/18 02:21:13;;;;;;;7.13;3.28;;;10.70;99.90;;;;;;5091090;28;20031;-45
2021/10/18 02:23:39;;;;;;;7.85;3.63;;;10.70;99.90;;;;;;5092484;28;20028;-46
2021/10/18 02:26:04;;;;;;;7.03;4.28;;;10.60;99.90;;;;;;5078005;28;20454;-46
2021/10/18 02:28:30;;;;;;;10.98;3.83;;;10.60;99.90;;;;;;5083042;28;20028;-46
2021/10/18 02:30:55;;;;;;;13.25;4.03;;;10.60;99.90;;;;;;5092206;28;20047;-46
2021/10/18 02:33:21;;;;;;;14.68;4.95;;;10.60;99.90;;;;;;5092178;28;20024;-46
2021/10/18 02:35:46;;;;;;;8.93;3.38;;;10.60;99.90;;;;;;5092084;28;20108;-47
2021/10/18 02:38:12;;;;;;;7.50;3.63;;;10.50;99.90;;;;;;5091485;28;20032;-47
2021/10/18 02:40:37;;;;;;;9.35;3.45;;;10.50;99.90;;;;;;5091690;28;20036;-45
2021/10/18 02:43:03;;;;;;;7.20;3.97;;;10.50;99.90;;;;;;5092385;28;20077;-48
2021/10/18 02:45:29;;;;;;;7.70;3.75;;;10.40;99.90;;;;;;5092163;28;20389;-46
2021/10/18 02:47:54;;;;;;;7.25;3.67;;;10.40;99.90;;;;;;5089968;28;20024;-46
2021/10/18 02:50:20;;;;;;;7.28;3.85;;;10.30;99.90;;;;;;5091906;28;20393;-49
2021/10/18 02:52:45;;;;;;;12.30;4.15;;;10.30;99.90;;;;;;5092000;28;20549;-46
2021/10/18 02:55:11;;;;;;;10.68;4.03;;;10.20;99.90;;;;;;5083777;28;20044;-47
2021/10/18 02:57:36;;;;;;;9.30;3.70;;;10.20;99.90;;;;;;5076681;28;20482;-46
2021/10/18 03:00:04;;;;;;;7.82;4.20;;;10.20;99.90;;;;;;5091850;28;20032;-46
2021/10/18 03:02:29;;;;;;;10.75;3.78;;;10.10;99.90;;;;;;5091744;28;20462;-48
2021/10/18 03:04:55;;;;;;;7.63;3.78;;;10.10;99.90;;;;;;5091924;28;20051;-46
2021/10/18 03:07:22;;;;;;;7.93;3.75;;;10.10;99.90;;;;;;5091619;28;20099;-46
2021/10/18 03:09:47;;;;;;;7.72;4.10;;;10.00;99.90;;;;;;5091868;28;20129;-46
2021/10/18 03:12:12;;;;;;;11.13;4.35;;;10.00;99.90;;;;;;5091579;28;20119;-48
2021/10/18 03:14:38;;;;;;;8.70;3.50;;;9.90;99.90;;;;;;5091632;28;20059;-46
2021/10/18 03:17:03;;;;;;;9.73;4.05;;;9.90;99.90;;;;;;5090680;28;20028;-47
2021/10/18 03:19:29;;;;;;;7.85;4.38;;;9.90;99.90;;;;;;5091147;28;20028;-47
2021/10/18 03:21:54;;;;;;;13.05;3.88;;;9.90;99.90;;;;;;5091710;28;20523;-46
2021/10/18 03:24:20;;;;;;;7.60;4.18;;;9.90;99.90;;;;;;5090397;28;20079;-47
2021/10/18 03:26:45;;;;;;;9.30;3.80;;;9.90;99.90;;;;;;5073316;28;20020;-46
2021/10/18 03:29:11;;;;;;;9.82;4.25;;;9.90;99.90;;;;;;5084052;28;20032;-49
2021/10/18 03:31:36;;;;;;;11.55;4.57;;;9.90;99.90;;;;;;5091417;28;20028;-46
2021/10/18 03:34:02;;;;;;;8.52;3.95;;;9.90;99.90;;;;;;5090979;28;20474;-47
2021/10/18 03:36:27;;;;;;;9.15;3.53;;;9.90;99.90;;;;;;5091491;28;20062;-46
2021/10/18 03:38:53;;;;;;;11.30;4.30;;;9.90;99.90;;;;;;5090469;28;20374;-45
2021/10/18 03:41:18;;;;;;;9.93;4.22;;;9.90;99.90;;;;;;5090567;28;20028;-45
2021/10/18 03:43:44;;;;;;;11.20;4.13;;;9.90;99.90;;;;;;5090942;28;20039;-47
2021/10/18 03:46:09;;;;;;;10.23;4.40;;;9.90;99.90;;;;;;5090724;28;20044;-47
2021/10/18 03:48:35;;;;;;;10.07;4.05;;;9.90;99.90;;;;;;5090532;28;20056;-47
2021/10/18 03:51:00;;;;;;;7.25;4.00;;;9.90;99.90;;;;;;5090475;28;20398;-45
2021/10/18 03:53:26;;;;;;;7.70;4.15;;;9.80;99.90;;;;;;5090443;28;20028;-45
2021/10/18 03:55:51;;;;;;;6.00;3.55;;;9.80;99.90;;;;;;5078910;28;20036;-46
2021/10/18 03:58:17;;;;;;;8.20;4.00;;;9.80;99.90;;;;;;5080983;28;20452;-45
2021/10/18 04:00:42;;;;;;;8.15;3.83;;;9.80;99.90;;;;;;5088859;28;20024;-46
2021/10/18 04:03:08;;;;;;;9.35;4.15;;;9.70;99.90;;;;;;5055597;28;20048;-46
2021/10/18 04:05:33;;;;;;;6.47;3.40;;;9.70;99.90;;;;;;5050136;28;20371;-49
2021/10/18 04:07:59;;;;;;;6.60;3.50;;;9.70;99.90;;;;;;5050076;28;20488;-46
2021/10/18 04:10:24;;;;;;;8.75;3.67;;;9.70;99.90;;;;;;5049965;28;20486;-49
2021/10/18 04:12:50;;;;;;;7.43;3.65;;;9.70;99.90;;;;;;5048728;28;20040;-45
2021/10/18 04:15:16;;;;;;;5.30;3.63;;;9.70;99.90;;;;;;5050452;28;20363;-46
2021/10/18 04:17:42;;;;;;;10.45;3.60;;;9.60;99.90;;;;;;5049745;28;20029;-46
2021/10/18 04:20:09;;;;;;;11.40;4.25;;;9.60;99.90;;;;;;5048551;28;20394;-45
2021/10/18 04:22:34;;;;;;;8.20;3.63;;;9.60;99.90;;;;;;5049962;28;20028;-45
2021/10/18 04:25:00;;;;;;;10.18;4.25;;;9.60;99.90;;;;;;5049285;28;20035;-46
2021/10/18 04:27:25;;;;;;;5.75;3.55;;;9.60;99.90;;;;;;5072809;28;20025;-45
2021/10/18 04:29:51;;;;;;;10.25;3.70;;;9.70;99.90;;;;;;5088904;28;20139;-45
2021/10/18 04:32:17;;;;;;;7.60;3.90;;;9.70;99.90;;;;;;5090267;28;20032;-45
2021/10/18 04:34:43;;;;;;;7.70;4.55;;;9.70;99.90;;;;;;5090204;28;20081;-49
2021/10/18 04:37:09;;;;;;;6.13;3.55;;;9.70;99.90;;;;;;5088003;28;20055;-49
2021/10/18 04:39:35;;;;;;;8.23;3.78;;;9.70;99.90;;;;;;5089794;28;20028;-47
2021/10/18 04:42:02;;;;;;;9.88;3.80;;;9.70;99.90;;;;;;5089272;28;20020;-45
2021/10/18 04:44:27;;;;;;;5.85;3.42;;;9.80;99.90;;;;;;5089879;28;20217;-47
2021/10/18 04:46:53;;;;;;;7.10;3.65;;;9.90;99.90;;;;;;5090710;28;20036;-48
2021/10/18 04:49:19;;;;;;;8.98;3.17;;;9.90;99.90;;;;;;5090551;28;20016;-45
2021/10/18 04:51:45;;;;;;;7.93;3.97;;;9.90;99.90;;;;;;5090788;28;20036;-49
2021/10/18 04:54:10;;;;;;;9.57;4.20;;;9.90;99.90;;;;;;5090475;28;20024;-46
2021/10/18 04:56:36;;;;;;;12.13;4.65;;;10.00;99.90;;;;;;5080273;28;20153;-45
2021/10/18 04:59:01;;;;;;;4.25;3.30;;;10.00;99.90;;;;;;5082005;28;20089;-49
2021/10/18 05:01:28;;;;;;;7.93;3.55;;;10.10;99.90;;;;;;5090579;28;20032;-45
2021/10/18 05:03:54;;;;;;;7.65;3.88;;;10.10;99.90;;;;;;5090696;28;20027;-45
2021/10/18 05:06:19;;;;;;;9.85;3.50;;;10.10;99.90;;;;;;5090550;28;20366;-47
2021/10/18 05:08:45;;;;;;;12.63;4.68;;;10.20;99.90;;;;;;5090036;28;20027;-46
2021/10/18 05:11:10;;;;;;;8.88;3.75;;;10.20;99.90;;;;;;5090395;28;20106;-46
2021/10/18 05:13:35;;;;;;;6.18;3.80;;;10.20;99.90;;;;;;5090617;28;20028;-48
2021/10/18 05:16:01;;;;;;;6.35;3.67;;;10.20;99.90;;;;;;5090298;28;20110;-45
2021/10/18 05:18:26;;;;;;;13.15;3.60;;;10.20;99.90;;;;;;5072832;28;20119;-48
2021/10/18 05:20:52;;;;;;;15.48;3.97;;;10.20;99.90;;;;;;5057675;28;20029;-47
2021/10/18 05:23:18;;;;;;;8.85;3.97;;;10.20;99.90;;;;;;5068284;28;20051;-45
2021/10/18 05:25:43;;;;;;;11.18;4.38;;;10.20;99.90;;;;;;5057637;28;20029;-45
2021/10/18 05:28:09;;;;;;;7.53;3.72;;;10.20;99.90;;;;;;5061606;28;20167;-46
2021/10/18 05:30:36;;;;;;;8.68;3.80;;;10.30;99.90;;;;;;5053768;28;20116;-45
2021/10/18 05:33:02;;;;;;;9.50;3.75;;;10.30;99.90;;;;;;5062268;28;20031;-46
2021/10/18 05:35:27;;;;;;;7.38;3.78;;;10.30;99.90;;;;;;5062188;28;20390;-47
2021/10/18 05:37:54;;;;;;;8.63;3.78;;;10.30;99.90;;;;;;5076546;28;20024;-45
2021/10/18 05:40:22;;;;;;;9.60;3.85;;;10.30;99.90;;;;;;5066772;28;20420;-49
2021/10/18 05:42:48;;;;;;;8.50;3.65;;;10.30;99.90;;;;;;5077680;28;20031;-45
2021/10/18 05:45:14;;;;;;;11.48;3.47;;;10.30;99.90;;;;;;5055471;28;20025;-48
2021/10/18 05:47:57;;;;;;;13.23;4.47;;;10.30;99.90;;;;;;5049120;28;20033;-46
2021/10/18 05:50:25;;;;;;;6.40;3.70;;;10.30;99.90;;;;;;5077525;28;20078;-48
2021/10/18 05:52:51;;;;;;;7.10;3.90;;;10.30;99.90;;;;;;5069432;28;20025;-47
2021/10/18 05:55:16;;;;;;;8.13;3.83;;;10.30;99.90;;;;;;5068024;28;20038;-46
2021/10/18 05:57:59;;;;;;;6.85;3.25;;;10.30;99.90;;;;;;5067845;28;20389;-46
2021/10/18 06:00:26;;;;;;;9.50;4.13;;;10.30;99.90;;;;;;5048795;28;20083;-48
2021/10/18 06:02:53;;;;;;;9.40;3.97;;;10.30;99.90;;;;;;5056248;28;20519;-47
2021/10/18 06:05:18;;;;;;;6.70;3.70;;;10.30;99.90;;;;;;5068594;28;20413;-46
2021/10/18 06:07:44;;;;;;;5.95;3.38;;;10.30;99.90;;;;;;5066935;28;20029;-46
2021/10/18 06:10:12;;;;;;;7.47;3.40;;;10.40;99.90;;;;;;5065006;28;20040;-47
2021/10/18 06:12:38;;;;;;;5.20;3.97;;;10.40;99.90;;;;;;5051385;28;20754;-46
2021/10/18 06:15:04;;;;;;;8.77;4.43;;;10.30;99.90;;;;;;5059803;28;20025;-47
2021/10/18 06:17:30;;;;;;;8.13;4.00;;;10.30;99.90;;;;;;5066446;28;20032;-45
2021/10/18 06:19:55;;;;;;;6.70;3.60;;;10.40;99.90;;;;;;5066980;28;20036;-45
2021/10/18 06:22:21;;;;;;;6.57;4.07;;;10.40;99.90;;;;;;5068439;28;20116;-47
2021/10/18 06:24:48;;;;;;;10.80;4.00;;;10.40;99.90;;;;;;5062024;28;20678;-46
2021/10/18 06:27:14;;;;;;;13.82;4.55;;;10.40;99.90;;;;;;5061572;28;20515;-47
2021/10/18 06:29:39;;;;;;;12.85;4.28;;;10.40;99.90;;;;;;5070762;28;20021;-47
2021/10/18 06:32:06;;;;;;;12.30;3.90;;;10.40;99.90;;;;;;5067780;28;20101;-50
2021/10/18 06:34:32;;;;;;;6.15;4.03;;;10.30;99.90;;;;;;5068915;28;20028;-49
2021/10/18 06:36:57;;;;;;;8.55;3.75;;;10.40;99.90;;;;;;5065824;28;20028;-46
2021/10/18 06:39:23;;;;;;;8.85;3.50;;;10.40;99.90;;;;;;5069244;28;20028;-46
2021/10/18 06:41:48;;;;;;;8.70;4.10;;;10.40;99.90;;;;;;5069271;28;20043;-46
2021/10/18 06:44:14;;;;;;;7.47;4.15;;;10.40;99.90;;;;;;5064201;28;20495;-47
2021/10/18 06:46:39;;;;;;;8.50;4.00;;;10.40;99.90;;;;;;5069234;28;20028;-46
2021/10/18 06:49:05;;;;;;;6.38;3.78;;;10.40;99.90;;;;;;5065851;28;20036;-47
2021/10/18 06:51:34;;;;;;;8.65;4.15;;;10.50;99.90;;;;;;5048782;28;20439;-47
2021/10/18 06:54:00;;;;;;;8.90;3.78;;;10.50;99.90;;;;;;5059276;28;20514;-46
2021/10/18 06:56:26;;;;;;;7.22;4.20;;;10.50;99.90;;;;;;5071177;28;20115;-47
2021/10/18 06:58:51;;;;;;;9.23;4.30;;;10.50;99.90;;;;;;5063670;28;20031;-49
2021/10/18 07:01:17;;;;;;;9.40;4.35;;;10.50;99.90;;;;;;5079957;28;20032;-50
2021/10/18 07:03:42;;;;;;;9.02;3.97;;;10.60;99.90;;;;;;5086556;28;20020;-47
2021/10/18 07:06:08;;;;;;;11.07;4.10;;;10.60;99.90;;;;;;5060327;28;20039;-46
2021/10/18 07:08:33;;;;;;;9.35;3.78;;;10.60;99.90;;;;;;5052553;28;20024;-44
2021/10/18 07:10:59;;;;;;;6.57;4.10;;;10.70;99.90;;;;;;5070582;28;20123;-44
2021/10/18 07:13:24;;;;;;;7.55;3.97;;;10.70;99.90;;;;;;5075345;28;20024;-45
2021/10/18 07:15:50;;;;;;;5.95;3.92;;;10.80;99.90;;;;;;5082988;28;20074;-45
2021/10/18 07:18:15;;;;;;;12.23;4.43;;;10.80;99.90;;;;;;5067714;28;20424;-44
2021/10/18 07:20:41;;;;;;;6.57;4.32;;;10.90;99.90;;;;;;5053940;28;20068;-45
2021/10/18 07:23:09;;;;;;;9.13;4.10;;;11.00;99.90;;;;;;5070945;28;20108;-46
2021/10/18 07:25:36;;;;;;;6.57;3.50;;;11.00;99.90;;;;;;5058393;28;20025;-46
2021/10/18 07:28:02;;;;;;;9.77;3.95;;;11.10;99.90;;;;;;5078616;28;20481;-45
2021/10/18 07:30:27;;;;;;;7.82;4.88;;;11.10;99.90;;;;;;5050453;28;20025;-46
2021/10/18 07:32:53;;;;;;;8.43;3.90;;;11.00;99.90;;;;;;5050248;28;20518;-46
2021/10/18 07:35:21;;;;;;;6.45;4.07;;;11.10;99.90;;;;;;5070201;28;20037;-46
2021/10/18 07:37:54;;;;;;;7.90;4.43;;;11.10;99.90;;;;;;5078634;28;20085;-46
2021/10/18 07:40:20;;;;;;;9.00;4.10;;;11.10;99.90;;;;;;5051526;28;20237;-46
2021/10/18 07:42:46;;;;;;;7.47;4.00;;;11.10;99.90;;;;;;5067399;28;20674;-47
2021/10/18 07:45:13;;;;;;;7.85;3.97;;;11.00;99.90;;;;;;5068517;28;20174;-46
2021/10/18 07:47:39;;;;;;;9.13;3.97;;;11.10;99.90;;;;;;5064651;28;20475;-48
2021/10/18 07:50:10;;;;;;;5.97;3.38;;;11.00;99.90;;;;;;5058807;28;20029;-46
2021/10/18 07:52:36;;;;;;;9.02;4.28;;;11.00;99.90;;;;;;5050100;28;20036;-47
2021/10/18 07:55:04;;;;;;;11.82;4.15;;;11.00;99.90;;;;;;5057396;28;20386;-44
2021/10/18 07:57:29;;;;;;;10.63;3.53;;;11.00;99.90;;;;;;5074951;28;20040;-46
2021/10/18 07:59:55;;;;;;;19.60;4.40;;;11.10;99.90;;;;;;5069937;28;20028;-46
2021/10/18 08:02:22;;;;;;;9.15;4.07;;;11.10;99.90;;;;;;5066384;28;20477;-48
2021/10/18 08:04:47;;;;;;;6.22;3.67;;;11.20;99.90;;;;;;5067760;28;20024;-47
2021/10/18 08:07:13;;;;;;;7.60;4.38;;;11.30;99.90;;;;;;5050778;28;20029;-45
2021/10/18 08:09:38;;;;;;;8.30;4.50;;;11.30;99.90;;;;;;5059520;28;20078;-47
2021/10/18 08:12:04;;;;;;;7.57;4.55;;;11.40;99.90;;;;;;5088038;28;20039;-48
2021/10/18 08:14:29;;;;;;;6.63;3.72;;;11.50;99.90;;;;;;5085637;28;20032;-46
2021/10/18 08:16:55;;;;;;;9.10;4.30;;;11.60;99.90;;;;;;5069031;28;20024;-46
2021/10/18 08:19:20;;;;;;;10.23;4.50;;;11.70;99.90;;;;;;5060685;28;20056;-47
2021/10/18 08:21:46;;;;;;;9.07;3.60;;;11.70;99.90;;;;;;5059883;28;20119;-46
2021/10/18 08:24:12;;;;;;;8.52;4.10;;;11.90;99.90;;;;;;5048668;28;20581;-45
2021/10/18 08:26:37;;;;;;;8.45;4.18;;;12.00;99.90;;;;;;5065164;28;20246;-46
2021/10/18 08:29:03;;;;;;;10.25;4.32;;;12.10;99.90;;;;;;5068628;28;20650;-47
2021/10/18 08:31:28;;;;;;;9.48;4.28;;;12.20;99.90;;;;;;5059369;28;20283;-46
2021/10/18 08:33:54;;;;;;;10.73;4.07;;;12.20;99.90;;;;;;5062654;28;20020;-46
2021/10/18 08:36:19;;;;;;;8.70;4.38;;;12.30;99.90;;;;;;5062612;28;20024;-46
2021/10/18 08:38:48;;;;;;;8.82;4.13;;;12.40;99.90;;;;;;5073944;28;20440;-46
2021/10/18 08:41:20;;;;;;;8.95;4.30;;;12.50;99.90;;;;;;5067257;28;20157;-45
2021/10/18 08:46:30;;;;;;;9.05;4.13;;;12.80;99.90;;;;;;5079262;28;20485;-46
2021/10/18 08:48:57;;;;;;;9.52;3.90;;;12.90;99.90;;;;;;5087495;28;20024;-47
2021/10/18 08:51:24;;;;;;;7.60;3.75;;;13.00;99.90;;;;;;5058734;28;20107;-46
2021/10/18 08:53:50;;;;;;;8.45;3.67;;;13.20;99.90;;;;;;5049497;28;20125;-47
2021/10/18 08:56:15;;;;;;;5.53;3.83;;;13.30;99.90;;;;;;5061478;28;20453;-45
2021/10/18 08:58:41;;;;;;;7.68;3.83;;;13.50;99.90;;;;;;5083490;28;20081;-45
2021/10/18 09:01:07;;;;;;;6.47;2.65;;;14.30;99.90;;;;;;5051871;28;20056;-46
2021/10/18 09:03:33;;;;;;;9.63;3.25;;;15.90;99.10;;;;;;5069234;28;20588;-47
2021/10/18 09:06:23;;;;;;;8.55;3.30;;;17.90;94.70;;;;;;5061865;28;20491;-47
2021/10/18 09:08:54;;;;;;;5.63;2.47;;;19.90;90.60;;;;;;5048353;28;20112;-47
2021/10/18 09:11:21;;;;;;;4.47;2.40;;;20.70;79.90;;;;;;5057134;28;20032;-46
2021/10/18 09:13:52;;;;;;;8.98;2.67;;;21.80;74.30;;;;;;5068986;28;20021;-48
2021/10/18 09:16:33;;;;;;;8.90;3.22;;;22.70;69.20;;;;;;5052080;28;20356;-49
2021/10/18 09:19:05;;;;;;;6.13;2.05;;;23.30;65.40;;;;;;5060669;28;20039;-49
2021/10/18 09:21:42;;;;;;;4.30;3.30;;;24.30;60.30;;;;;;5080545;28;20032;-47
2021/10/18 09:24:10;;;;;;;5.38;2.65;;;24.80;56.20;;;;;;5072368;28;20028;-46
2021/10/18 09:26:37;;;;;;;6.10;2.30;;;23.90;56.40;;;;;;5064251;28;20387;-47
2021/10/18 09:29:15;;;;;;;4.13;2.10;;;23.70;57.40;;;;;;5063489;28;20033;-49
2021/10/18 09:31:44;;;;;;;3.00;1.90;;;24.00;56.80;;;;;;5062585;28;20025;-47
2021/10/18 09:34:14;;;;;;;8.63;2.50;;;24.00;54.40;;;;;;5064596;28;20078;-48
2021/10/18 09:36:41;;;;;;;3.20;2.53;;;24.30;55.20;;;;;;5059328;28;20059;-46
2021/10/18 09:39:17;;;;;;;5.47;2.00;;;24.00;54.60;;;;;;5058258;28;20040;-50
2021/10/18 09:41:58;;;;;;;3.17;1.98;;;24.30;54.00;;;;;;5058923;28;20033;-50
2021/10/18 09:44:35;;;;;;;;;;;24.00;53.50;;;;;;5059831;28;20017;-47
2021/10/18 09:47:18;;;;;;;3.00;1.73;;;23.70;55.30;;;;;;5058366;28;19935;-50
2021/10/18 10:51:15;;;;;;;2.47;1.73;;;24.60;49.00;;;;;;5063568;28;20141;-47
2021/10/18 10:53:46;;;;;;;2.88;1.70;;;24.40;50.20;;;;;;5062395;28;20455;-48
2021/10/18 10:56:22;;;;;;;2.78;1.60;;;24.40;49.70;;;;;;5061239;28;20025;-47
2021/10/18 10:58:52;;;;;;;2.70;2.00;;;24.10;47.60;;;;;;5076860;28;20065;-48
2021/10/18 11:01:39;;;;;;;8.60;2.40;;;23.00;49.80;;;;;;5080331;28;20029;-46
2021/10/18 11:04:29;;;;;;;3.33;2.25;;;23.20;51.60;;;;;;5068643;28;20482;-47
2021/10/18 11:06:55;;;;;;;;;;;23.40;50.10;;;;;;5084167;28;20110;-47
2021/10/18 11:09:54;;;;;;;2.40;1.90;;;23.40;49.50;;;;;;5081654;28;20074;-46
2021/10/18 11:12:22;;;;;;;4.43;2.20;;;23.20;49.90;;;;;;5055283;28;20024;-46
2021/10/18 11:14:56;;;;;;;3.05;2.25;;;22.60;51.80;;;;;;5057950;28;20031;-46
2021/10/18 11:17:26;;;;;;;3.40;2.15;;;22.20;52.50;;;;;;5071432;28;20008;-47
2021/10/18 11:20:01;;;;;;;5.60;2.10;;;22.60;53.40;;;;;;5055023;28;20455;-47
2021/10/18 11:22:30;;;;;;;3.08;2.08;;;21.70;53.20;;;;;;5065433;28;20036;-45
2021/10/18 11:24:56;;;;;;;4.47;2.08;;;22.00;53.50;;;;;;5064477;28;20025;-46
2021/10/18 11:27:27;;;;;;;2.75;1.92;;;21.80;55.50;;;;;;5064305;28;20032;-48
2021/10/18 11:29:57;;;;;;;2.67;1.88;;;21.80;55.30;;;;;;5062346;28;20039;-46
2021/10/18 11:32:24;;;;;;;5.18;2.03;;;21.60;54.40;;;;;;5049951;28;20110;-49
2021/10/18 11:34:50;;;;;;;2.55;1.80;;;21.70;55.50;;;;;;5080298;28;20029;-46
2021/10/18 11:37:15;;;;;;;2.85;1.92;;;22.00;55.00;;;;;;5091491;28;20397;-47
2021/10/18 11:39:41;;;;;;;3.08;2.03;;;22.40;54.30;;;;;;5073883;28;20434;-46
2021/10/18 11:42:13;;;;;;;4.35;1.90;;;22.50;54.70;;;;;;5059625;28;20036;-47
2021/10/18 11:44:55;;;;;;;4.10;1.85;;;22.80;53.30;;;;;;5052246;28;20048;-46
2021/10/18 11:47:27;;;;;;;4.78;1.70;;;22.80;54.00;;;;;;5050613;28;20036;-47
2021/10/18 11:50:03;;;;;;;3.00;1.98;;;22.90;54.30;;;;;;5067185;28;20527;-46
2021/10/18 11:52:28;;;;;;;4.68;2.00;;;23.00;54.30;;;;;;5077520;28;20077;-47
2021/10/18 11:54:54;;;;;;;6.32;2.35;;;23.00;53.90;;;;;;5073181;28;20589;-46
2021/10/18 11:57:19;;;;;;;6.10;2.15;;;22.80;53.60;;;;;;5055812;28;20145;-49
2021/10/18 11:59:46;;;;;;;2.47;1.73;;;22.70;52.60;;;;;;5077126;28;20032;-46
2021/10/18 12:02:20;;;;;;;4.60;1.73;;;22.00;54.60;;;;;;5070442;28;20025;-46
2021/10/18 12:04:56;;;;;;;3.33;1.92;;;21.30;56.80;;;;;;5068548;28;20072;-47
2021/10/18 12:07:45;;;;;;;2.38;1.98;;;20.70;57.40;;;;;;5074478;28;20128;-46
2021/10/18 12:10:30;;;;;;;3.70;1.63;;;20.40;58.20;;;;;;5056210;28;20035;-47
2021/10/18 12:13:26;;;;;;;4.68;2.08;;;19.50;61.20;;;;;;5072273;28;20051;-46
2021/10/18 12:16:03;;;;;;;11.10;2.33;;;19.00;61.30;;;;;;5080517;28;20559;-46
2021/10/18 12:18:36;;;;;;;3.00;1.80;;;18.40;62.50;;;;;;5080396;28;20084;-45
2021/10/18 12:21:26;;;;;;;8.27;2.33;;;18.40;62.80;;;;;;5070398;28;20644;-45
2021/10/18 12:23:56;;;;;;;5.35;2.30;;;18.10;63.60;;;;;;5090182;28;20631;-45
2021/10/18 12:26:30;;;;;;;4.70;2.42;;;18.00;64.10;;;;;;5069945;28;20056;-46
2021/10/18 12:29:28;;;;;;;8.07;2.47;;;18.10;65.50;;;;;;5081324;28;20035;-46
2021/10/18 12:31:59;;;;;;;5.10;2.20;;;18.10;64.40;;;;;;5026817;28;20037;-47
2021/10/18 12:34:27;;;;;;;4.55;2.17;;;18.00;65.30;;;;;;5050169;28;20013;-45
2021/10/18 12:37:01;;;;;;;5.00;2.63;;;17.60;65.60;;;;;;5062225;28;20670;-46
2021/10/18 12:39:48;;;;;;;5.60;2.47;;;17.60;67.20;;;;;;5066172;28;20147;-48
2021/10/18 12:42:34;;;;;;;6.38;2.63;;;17.40;68.00;;;;;;5067991;28;20115;-46
2021/10/18 12:45:14;;;;;;;4.28;2.35;;;17.40;68.90;;;;;;5063925;28;20044;-46
2021/10/18 12:47:54;;;;;;;5.35;2.30;;;17.40;68.10;;;;;;5085758;28;20146;-47
2021/10/18 12:50:22;;;;;;;6.47;2.63;;;17.60;66.50;;;;;;5073732;28;20152;-46
2021/10/18 12:52:52;;;;;;;5.72;2.97;;;17.70;66.50;;;;;;5056021;28;20071;-45
2021/10/18 12:55:17;;;;;;;4.70;2.35;;;17.50;66.70;;;;;;5060364;28;20028;-45
2021/10/18 12:57:54;;;;;;;6.05;2.50;;;17.50;66.80;;;;;;5071556;28;20027;-46
2021/10/18 13:00:28;;;;;;;8.32;3.08;;;17.60;66.20;;;;;;5073781;28;20028;-47
2021/10/18 13:02:55;;;;;;;6.00;3.08;;;17.80;66.70;;;;;;5069733;28;20381;-48
2021/10/18 13:05:23;;;;;;;5.03;2.40;;;17.80;66.10;;;;;;5058513;28;20041;-46
2021/10/18 13:07:58;;;;;;;5.72;2.72;;;17.90;66.50;;;;;;5076162;28;20077;-46
2021/10/18 13:10:32;;;;;;;5.68;3.00;;;17.70;65.60;;;;;;5069298;28;20028;-48
2021/10/18 13:13:00;;;;;;;8.45;2.72;;;17.90;65.90;;;;;;5065982;28;20492;-47
2021/10/18 13:15:26;;;;;;;8.82;2.40;;;17.80;64.70;;;;;;5072749;28;20499;-47
2021/10/18 13:17:52;;;;;;;6.68;2.50;;;17.90;65.10;;;;;;5065787;28;20498;-48
2021/10/18 13:20:19;;;;;;;7.75;2.58;;;18.20;64.30;;;;;;5053113;28;20498;-45
2021/10/18 13:22:46;;;;;;;8.75;4.55;;;18.30;64.90;;;;;;5065221;28;20331;-46
2021/10/18 13:25:13;;;;;;;5.05;2.90;;;18.10;65.50;;;;;;5069175;28;20028;-45
2021/10/18 13:27:39;;;;;;;5.45;3.42;;;17.60;65.90;;;;;;5069050;28;20016;-47
2021/10/18 13:30:07;;;;;;;8.70;2.83;;;17.60;67.00;;;;;;5067623;28;20036;-48
2021/10/18 13:32:37;;;;;;;4.20;2.50;;;17.50;66.70;;;;;;5070098;28;20020;-46
2021/10/18 13:35:04;;;;;;;3.72;2.30;;;17.50;67.50;;;;;;5066840;28;20016;-46
2021/10/18 13:37:30;;;;;;;5.07;2.60;;;17.40;68.80;;;;;;5066311;28;20101;-45
2021/10/18 13:39:55;;;;;;;4.07;2.80;;;17.40;68.30;;;;;;5087256;28;20082;-46
2021/10/18 13:42:21;;;;;;;8.32;2.65;;;17.20;67.40;;;;;;5088509;28;20024;-46
2021/10/18 13:44:49;;;;;;;5.93;2.92;;;16.90;68.50;;;;;;5087806;28;20030;-48
2021/10/18 13:47:14;;;;;;;5.90;2.85;;;17.00;69.70;;;;;;5087709;28;20056;-46
2021/10/18 13:49:40;;;;;;;6.93;2.78;;;17.00;69.90;;;;;;5087877;28;20547;-45
2021/10/18 13:52:05;;;;;;;4.30;2.63;;;16.90;69.40;;;;;;5087815;28;20308;-48
2021/10/18 13:54:32;;;;;;;5.90;3.63;;;16.90;69.30;;;;;;5086852;28;20024;-48
2021/10/18 13:56:58;;;;;;;4.97;2.85;;;16.80;69.30;;;;;;5078269;28;20073;-47